sensor_id;sensor_type;location;lat;lon;timestamp;P1;durP1;ratioP1;P2;durP2;ratioP2
68765;SDS011;55756;45.582;11.484;2024-01-30T00:01:51;46.85;;;32.47;;
68765;SDS011;55756;45.582;11.484;2024-01-30T00:04:17;46.67;;;33.00;;
68765;SDS011;55756;45.582;11.484;2024-01-30T00:06:43;47.45;;;32.85;;
68765;SDS011;55756;45.582;11.484;2024-01-30T00:09:09;45.45;;;32.45;;
68765;SDS011;55756;45.582;11.484;2024-01-30T00:11:38;47.17;;;32.40;;
68765;SDS011;55756;45.582;11.484;2024-01-30T00:14:04;43.42;;;31.60;;
68765;SDS011;55756;45.582;11.484;2024-01-30T00:16:30;45.97;;;32.22;;
68765;SDS011;55756;45.582;11.484;2024-01-30T00:18:56;41.65;;;30.73;;
68765;SDS011;55756;45.582;11.484;2024-01-30T00:21:22;42.25;;;30.10;;
68765;SDS011;55756;45.582;11.484;2024-01-30T00:23:48;40.55;;;29.70;;
68765;SDS011;55756;45.582;11.484;2024-01-30T00:26:14;39.63;;;29.30;;
68765;SDS011;55756;45.582;11.484;2024-01-30T00:28:42;39.33;;;28.65;;
68765;SDS011;55756;45.582;11.484;2024-01-30T00:31:09;39.35;;;28.73;;
68765;SDS011;55756;45.582;11.484;2024-01-30T00:33:38;39.10;;;28.42;;
68765;SDS011;55756;45.582;11.484;2024-01-30T00:36:05;40.38;;;28.92;;
68765;SDS011;55756;45.582;11.484;2024-01-30T00:38:31;39.17;;;28.73;;
68765;SDS011;55756;45.582;11.484;2024-01-30T00:40:57;38.28;;;28.88;;
68765;SDS011;55756;45.582;11.484;2024-01-30T00:43:23;35.80;;;27.02;;
68765;SDS011;55756;45.582;11.484;2024-01-30T00:45:50;38.30;;;27.95;;
68765;SDS011;55756;45.582;11.484;2024-01-30T00:48:17;40.20;;;29.20;;
68765;SDS011;55756;45.582;11.484;2024-01-30T00:50:43;37.67;;;28.23;;
68765;SDS011;55756;45.582;11.484;2024-01-30T00:53:09;38.00;;;28.17;;
68765;SDS011;55756;45.582;11.484;2024-01-30T00:55:35;36.95;;;28.27;;
68765;SDS011;55756;45.582;11.484;2024-01-30T00:58:01;37.53;;;27.83;;
68765;SDS011;55756;45.582;11.484;2024-01-30T01:00:26;37.42;;;28.15;;
68765;SDS011;55756;45.582;11.484;2024-01-30T01:02:57;36.85;;;26.95;;
68765;SDS011;55756;45.582;11.484;2024-01-30T01:05:23;37.75;;;28.20;;
68765;SDS011;55756;45.582;11.484;2024-01-30T01:07:49;37.55;;;28.13;;
68765;SDS011;55756;45.582;11.484;2024-01-30T01:10:15;38.28;;;27.65;;
68765;SDS011;55756;45.582;11.484;2024-01-30T01:12:42;35.70;;;27.63;;
68765;SDS011;55756;45.582;11.484;2024-01-30T01:15:08;38.22;;;28.60;;
68765;SDS011;55756;45.582;11.484;2024-01-30T01:17:40;35.75;;;26.40;;
68765;SDS011;55756;45.582;11.484;2024-01-30T01:20:06;35.67;;;27.23;;
68765;SDS011;55756;45.582;11.484;2024-01-30T01:22:33;36.85;;;28.13;;
68765;SDS011;55756;45.582;11.484;2024-01-30T01:24:59;36.17;;;27.00;;
68765;SDS011;55756;45.582;11.484;2024-01-30T01:27:25;37.40;;;27.80;;
68765;SDS011;55756;45.582;11.484;2024-01-30T01:29:51;35.95;;;27.05;;
68765;SDS011;55756;45.582;11.484;2024-01-30T01:32:17;37.40;;;27.58;;
68765;SDS011;55756;45.582;11.484;2024-01-30T01:34:43;39.00;;;28.52;;
68765;SDS011;55756;45.582;11.484;2024-01-30T01:37:09;39.15;;;27.80;;
68765;SDS011;55756;45.582;11.484;2024-01-30T01:39:35;38.92;;;28.70;;
68765;SDS011;55756;45.582;11.484;2024-01-30T01:42:01;39.22;;;28.58;;
68765;SDS011;55756;45.582;11.484;2024-01-30T01:44:27;39.85;;;29.73;;
68765;SDS011;55756;45.582;11.484;2024-01-30T01:46:53;37.97;;;28.83;;
68765;SDS011;55756;45.582;11.484;2024-01-30T01:49:19;39.75;;;29.42;;
68765;SDS011;55756;45.582;11.484;2024-01-30T01:51:50;40.25;;;29.52;;
68765;SDS011;55756;45.582;11.484;2024-01-30T01:54:18;38.78;;;30.00;;
68765;SDS011;55756;45.582;11.484;2024-01-30T01:56:44;41.38;;;30.60;;
68765;SDS011;55756;45.582;11.484;2024-01-30T01:59:10;39.65;;;29.95;;
68765;SDS011;55756;45.582;11.484;2024-01-30T02:01:36;37.95;;;28.23;;
68765;SDS011;55756;45.582;11.484;2024-01-30T02:04:02;37.63;;;28.55;;
68765;SDS011;55756;45.582;11.484;2024-01-30T02:06:28;39.67;;;29.00;;
68765;SDS011;55756;45.582;11.484;2024-01-30T02:08:54;43.33;;;30.15;;
68765;SDS011;55756;45.582;11.484;2024-01-30T02:11:20;39.05;;;29.95;;
68765;SDS011;55756;45.582;11.484;2024-01-30T02:13:48;39.40;;;28.75;;
68765;SDS011;55756;45.582;11.484;2024-01-30T02:16:14;40.90;;;29.45;;
68765;SDS011;55756;45.582;11.484;2024-01-30T02:18:39;37.95;;;28.83;;
68765;SDS011;55756;45.582;11.484;2024-01-30T02:21:11;36.88;;;28.33;;
68765;SDS011;55756;45.582;11.484;2024-01-30T02:23:37;36.90;;;28.25;;
68765;SDS011;55756;45.582;11.484;2024-01-30T02:26:06;38.00;;;29.17;;
68765;SDS011;55756;45.582;11.484;2024-01-30T02:28:31;38.15;;;28.75;;
68765;SDS011;55756;45.582;11.484;2024-01-30T02:30:57;38.25;;;28.92;;
68765;SDS011;55756;45.582;11.484;2024-01-30T02:33:23;37.00;;;27.23;;
68765;SDS011;55756;45.582;11.484;2024-01-30T02:35:49;36.72;;;28.10;;
68765;SDS011;55756;45.582;11.484;2024-01-30T02:38:17;41.45;;;28.60;;
68765;SDS011;55756;45.582;11.484;2024-01-30T02:43:09;39.47;;;28.80;;
68765;SDS011;55756;45.582;11.484;2024-01-30T02:45:34;39.33;;;28.38;;
68765;SDS011;55756;45.582;11.484;2024-01-30T02:48:00;38.65;;;28.02;;
68765;SDS011;55756;45.582;11.484;2024-01-30T02:50:26;38.35;;;29.30;;
68765;SDS011;55756;45.582;11.484;2024-01-30T02:52:52;39.35;;;28.52;;
68765;SDS011;55756;45.582;11.484;2024-01-30T02:55:17;38.42;;;28.92;;
68765;SDS011;55756;45.582;11.484;2024-01-30T02:57:43;38.55;;;27.58;;
68765;SDS011;55756;45.582;11.484;2024-01-30T03:00:09;39.72;;;28.40;;
68765;SDS011;55756;45.582;11.484;2024-01-30T03:02:36;38.47;;;27.92;;
68765;SDS011;55756;45.582;11.484;2024-01-30T03:05:02;39.38;;;28.30;;
68765;SDS011;55756;45.582;11.484;2024-01-30T03:07:29;41.03;;;28.73;;
68765;SDS011;55756;45.582;11.484;2024-01-30T03:09:54;39.55;;;27.88;;
68765;SDS011;55756;45.582;11.484;2024-01-30T03:12:21;41.53;;;28.33;;
68765;SDS011;55756;45.582;11.484;2024-01-30T03:14:47;38.17;;;28.25;;
68765;SDS011;55756;45.582;11.484;2024-01-30T03:17:14;38.70;;;28.38;;
68765;SDS011;55756;45.582;11.484;2024-01-30T03:19:40;40.85;;;28.40;;
68765;SDS011;55756;45.582;11.484;2024-01-30T03:22:06;37.90;;;27.85;;
68765;SDS011;55756;45.582;11.484;2024-01-30T03:24:31;37.17;;;27.23;;
68765;SDS011;55756;45.582;11.484;2024-01-30T03:26:57;39.35;;;27.85;;
68765;SDS011;55756;45.582;11.484;2024-01-30T03:29:24;37.22;;;27.52;;
68765;SDS011;55756;45.582;11.484;2024-01-30T03:31:49;38.63;;;26.52;;
68765;SDS011;55756;45.582;11.484;2024-01-30T03:34:15;37.10;;;26.95;;
68765;SDS011;55756;45.582;11.484;2024-01-30T03:36:41;37.35;;;27.63;;
68765;SDS011;55756;45.582;11.484;2024-01-30T03:39:07;37.17;;;26.90;;
68765;SDS011;55756;45.582;11.484;2024-01-30T03:41:33;35.05;;;25.45;;
68765;SDS011;55756;45.582;11.484;2024-01-30T03:43:58;38.42;;;27.15;;
68765;SDS011;55756;45.582;11.484;2024-01-30T03:46:24;37.45;;;26.60;;
68765;SDS011;55756;45.582;11.484;2024-01-30T03:48:50;36.25;;;26.48;;
68765;SDS011;55756;45.582;11.484;2024-01-30T03:51:16;35.53;;;26.17;;
68765;SDS011;55756;45.582;11.484;2024-01-30T03:53:42;35.17;;;26.52;;
68765;SDS011;55756;45.582;11.484;2024-01-30T03:56:08;35.22;;;26.73;;
68765;SDS011;55756;45.582;11.484;2024-01-30T03:58:34;37.22;;;25.55;;
68765;SDS011;55756;45.582;11.484;2024-01-30T04:01:00;36.30;;;26.27;;
68765;SDS011;55756;45.582;11.484;2024-01-30T04:03:26;35.20;;;26.63;;
68765;SDS011;55756;45.582;11.484;2024-01-30T04:05:52;34.33;;;24.83;;
68765;SDS011;55756;45.582;11.484;2024-01-30T04:08:18;32.85;;;24.77;;
68765;SDS011;55756;45.582;11.484;2024-01-30T04:10:44;32.72;;;24.40;;
68765;SDS011;55756;45.582;11.484;2024-01-30T04:13:11;33.50;;;24.10;;
68765;SDS011;55756;45.582;11.484;2024-01-30T04:15:36;31.52;;;23.52;;
68765;SDS011;55756;45.582;11.484;2024-01-30T04:18:02;31.88;;;24.00;;
68765;SDS011;55756;45.582;11.484;2024-01-30T04:20:29;33.88;;;24.60;;
68765;SDS011;55756;45.582;11.484;2024-01-30T04:22:55;33.13;;;24.30;;
68765;SDS011;55756;45.582;11.484;2024-01-30T04:25:21;35.35;;;25.00;;
68765;SDS011;55756;45.582;11.484;2024-01-30T04:27:47;33.75;;;23.35;;
68765;SDS011;55756;45.582;11.484;2024-01-30T04:30:13;33.05;;;23.83;;
68765;SDS011;55756;45.582;11.484;2024-01-30T04:32:39;30.63;;;22.92;;
68765;SDS011;55756;45.582;11.484;2024-01-30T04:35:05;32.65;;;24.70;;
68765;SDS011;55756;45.582;11.484;2024-01-30T04:37:31;32.47;;;23.27;;
68765;SDS011;55756;45.582;11.484;2024-01-30T04:39:56;29.80;;;23.10;;
68765;SDS011;55756;45.582;11.484;2024-01-30T04:42:22;32.97;;;24.00;;
68765;SDS011;55756;45.582;11.484;2024-01-30T04:44:48;30.02;;;22.50;;
68765;SDS011;55756;45.582;11.484;2024-01-30T04:47:14;31.35;;;23.08;;
68765;SDS011;55756;45.582;11.484;2024-01-30T04:49:40;29.63;;;22.75;;
68765;SDS011;55756;45.582;11.484;2024-01-30T04:52:06;28.30;;;21.75;;
68765;SDS011;55756;45.582;11.484;2024-01-30T04:54:32;29.77;;;22.52;;
68765;SDS011;55756;45.582;11.484;2024-01-30T04:56:59;31.90;;;22.98;;
68765;SDS011;55756;45.582;11.484;2024-01-30T04:59:25;32.13;;;24.08;;
68765;SDS011;55756;45.582;11.484;2024-01-30T05:01:51;39.75;;;31.60;;
68765;SDS011;55756;45.582;11.484;2024-01-30T05:04:17;45.78;;;35.70;;
68765;SDS011;55756;45.582;11.484;2024-01-30T05:06:42;41.22;;;30.60;;
68765;SDS011;55756;45.582;11.484;2024-01-30T05:09:08;43.53;;;30.42;;
68765;SDS011;55756;45.582;11.484;2024-01-30T05:11:40;33.17;;;23.70;;
68765;SDS011;55756;45.582;11.484;2024-01-30T05:14:07;32.20;;;23.45;;
68765;SDS011;55756;45.582;11.484;2024-01-30T05:16:34;32.42;;;23.25;;
68765;SDS011;55756;45.582;11.484;2024-01-30T05:18:59;32.00;;;22.80;;
68765;SDS011;55756;45.582;11.484;2024-01-30T05:21:26;28.60;;;22.38;;
68765;SDS011;55756;45.582;11.484;2024-01-30T05:23:51;31.90;;;22.42;;
68765;SDS011;55756;45.582;11.484;2024-01-30T05:26:17;27.98;;;21.42;;
68765;SDS011;55756;45.582;11.484;2024-01-30T05:28:43;28.95;;;21.70;;
68765;SDS011;55756;45.582;11.484;2024-01-30T05:31:11;29.30;;;22.58;;
68765;SDS011;55756;45.582;11.484;2024-01-30T05:33:37;29.65;;;21.58;;
68765;SDS011;55756;45.582;11.484;2024-01-30T05:36:03;29.38;;;22.33;;
68765;SDS011;55756;45.582;11.484;2024-01-30T05:38:29;30.77;;;22.52;;
68765;SDS011;55756;45.582;11.484;2024-01-30T05:40:55;31.55;;;22.60;;
68765;SDS011;55756;45.582;11.484;2024-01-30T05:43:23;32.25;;;23.83;;
68765;SDS011;55756;45.582;11.484;2024-01-30T05:45:49;32.17;;;23.15;;
68765;SDS011;55756;45.582;11.484;2024-01-30T05:48:16;31.08;;;22.77;;
68765;SDS011;55756;45.582;11.484;2024-01-30T05:50:41;29.95;;;21.83;;
68765;SDS011;55756;45.582;11.484;2024-01-30T05:53:07;30.60;;;21.83;;
68765;SDS011;55756;45.582;11.484;2024-01-30T05:55:33;30.42;;;21.70;;
68765;SDS011;55756;45.582;11.484;2024-01-30T05:57:58;30.13;;;21.27;;
68765;SDS011;55756;45.582;11.484;2024-01-30T06:00:24;29.88;;;21.45;;
68765;SDS011;55756;45.582;11.484;2024-01-30T06:02:50;28.45;;;21.27;;
68765;SDS011;55756;45.582;11.484;2024-01-30T06:05:16;31.92;;;22.58;;
68765;SDS011;55756;45.582;11.484;2024-01-30T06:07:41;32.88;;;23.15;;
68765;SDS011;55756;45.582;11.484;2024-01-30T06:10:07;30.75;;;22.42;;
68765;SDS011;55756;45.582;11.484;2024-01-30T06:12:34;30.35;;;22.65;;
68765;SDS011;55756;45.582;11.484;2024-01-30T06:15:00;30.67;;;22.20;;
68765;SDS011;55756;45.582;11.484;2024-01-30T06:17:26;31.25;;;22.27;;
68765;SDS011;55756;45.582;11.484;2024-01-30T06:19:52;31.33;;;22.42;;
68765;SDS011;55756;45.582;11.484;2024-01-30T06:22:17;32.20;;;22.85;;
68765;SDS011;55756;45.582;11.484;2024-01-30T06:24:43;31.42;;;23.45;;
68765;SDS011;55756;45.582;11.484;2024-01-30T06:27:10;31.42;;;23.42;;
68765;SDS011;55756;45.582;11.484;2024-01-30T06:29:36;35.33;;;24.80;;
68765;SDS011;55756;45.582;11.484;2024-01-30T06:32:01;34.60;;;24.13;;
68765;SDS011;55756;45.582;11.484;2024-01-30T06:34:27;33.03;;;23.38;;
68765;SDS011;55756;45.582;11.484;2024-01-30T06:36:53;30.85;;;22.70;;
68765;SDS011;55756;45.582;11.484;2024-01-30T06:39:19;30.55;;;21.92;;
68765;SDS011;55756;45.582;11.484;2024-01-30T06:41:44;29.77;;;21.55;;
68765;SDS011;55756;45.582;11.484;2024-01-30T06:44:12;29.77;;;21.83;;
68765;SDS011;55756;45.582;11.484;2024-01-30T06:46:38;31.98;;;22.23;;
68765;SDS011;55756;45.582;11.484;2024-01-30T06:49:04;31.23;;;21.75;;
68765;SDS011;55756;45.582;11.484;2024-01-30T06:51:30;32.42;;;22.00;;
68765;SDS011;55756;45.582;11.484;2024-01-30T06:53:56;32.22;;;22.60;;
68765;SDS011;55756;45.582;11.484;2024-01-30T06:56:22;30.60;;;21.75;;
68765;SDS011;55756;45.582;11.484;2024-01-30T06:58:48;32.55;;;22.73;;
68765;SDS011;55756;45.582;11.484;2024-01-30T07:01:14;29.60;;;22.02;;
68765;SDS011;55756;45.582;11.484;2024-01-30T07:03:41;28.70;;;22.17;;
68765;SDS011;55756;45.582;11.484;2024-01-30T07:06:07;32.17;;;22.58;;
68765;SDS011;55756;45.582;11.484;2024-01-30T07:08:32;29.83;;;22.25;;
68765;SDS011;55756;45.582;11.484;2024-01-30T07:10:58;29.35;;;22.52;;
68765;SDS011;55756;45.582;11.484;2024-01-30T07:13:24;30.02;;;21.92;;
68765;SDS011;55756;45.582;11.484;2024-01-30T07:15:50;31.00;;;22.20;;
68765;SDS011;55756;45.582;11.484;2024-01-30T07:18:15;29.83;;;22.98;;
68765;SDS011;55756;45.582;11.484;2024-01-30T07:20:41;30.90;;;22.45;;
68765;SDS011;55756;45.582;11.484;2024-01-30T07:23:11;29.38;;;22.15;;
68765;SDS011;55756;45.582;11.484;2024-01-30T07:25:42;30.60;;;22.17;;
68765;SDS011;55756;45.582;11.484;2024-01-30T07:28:08;31.20;;;21.98;;
68765;SDS011;55756;45.582;11.484;2024-01-30T07:30:42;30.30;;;21.80;;
68765;SDS011;55756;45.582;11.484;2024-01-30T07:33:08;29.63;;;22.92;;
68765;SDS011;55756;45.582;11.484;2024-01-30T07:35:34;34.45;;;24.20;;
68765;SDS011;55756;45.582;11.484;2024-01-30T07:38:01;32.22;;;24.48;;
68765;SDS011;55756;45.582;11.484;2024-01-30T07:40:27;34.55;;;24.38;;
68765;SDS011;55756;45.582;11.484;2024-01-30T07:42:55;33.05;;;24.02;;
68765;SDS011;55756;45.582;11.484;2024-01-30T07:45:21;34.60;;;24.23;;
68765;SDS011;55756;45.582;11.484;2024-01-30T07:47:49;31.35;;;23.45;;
68765;SDS011;55756;45.582;11.484;2024-01-30T07:50:15;31.85;;;24.10;;
68765;SDS011;55756;45.582;11.484;2024-01-30T07:52:41;36.60;;;24.17;;
68765;SDS011;55756;45.582;11.484;2024-01-30T07:55:08;34.83;;;24.50;;
68765;SDS011;55756;45.582;11.484;2024-01-30T07:57:33;35.05;;;25.00;;
68765;SDS011;55756;45.582;11.484;2024-01-30T08:00:00;34.42;;;25.33;;
68765;SDS011;55756;45.582;11.484;2024-01-30T08:02:26;35.33;;;24.80;;
68765;SDS011;55756;45.582;11.484;2024-01-30T08:04:51;35.88;;;25.10;;
68765;SDS011;55756;45.582;11.484;2024-01-30T08:07:17;35.38;;;24.67;;
68765;SDS011;55756;45.582;11.484;2024-01-30T08:09:43;37.80;;;26.38;;
68765;SDS011;55756;45.582;11.484;2024-01-30T08:12:09;36.35;;;24.95;;
68765;SDS011;55756;45.582;11.484;2024-01-30T08:14:35;35.63;;;25.88;;
68765;SDS011;55756;45.582;11.484;2024-01-30T08:17:00;36.08;;;26.27;;
68765;SDS011;55756;45.582;11.484;2024-01-30T08:19:26;35.97;;;25.92;;
68765;SDS011;55756;45.582;11.484;2024-01-30T08:21:52;36.70;;;26.38;;
68765;SDS011;55756;45.582;11.484;2024-01-30T08:24:17;37.58;;;25.98;;
68765;SDS011;55756;45.582;11.484;2024-01-30T08:26:43;42.97;;;28.23;;
68765;SDS011;55756;45.582;11.484;2024-01-30T08:29:09;46.30;;;26.25;;
68765;SDS011;55756;45.582;11.484;2024-01-30T08:31:34;37.78;;;26.65;;
68765;SDS011;55756;45.582;11.484;2024-01-30T08:34:00;44.42;;;27.25;;
68765;SDS011;55756;45.582;11.484;2024-01-30T08:36:26;47.50;;;30.75;;
68765;SDS011;55756;45.582;11.484;2024-01-30T08:38:52;55.60;;;32.88;;
68765;SDS011;55756;45.582;11.484;2024-01-30T08:41:17;46.60;;;28.80;;
68765;SDS011;55756;45.582;11.484;2024-01-30T08:43:43;42.20;;;27.83;;
68765;SDS011;55756;45.582;11.484;2024-01-30T08:46:10;37.65;;;26.20;;
68765;SDS011;55756;45.582;11.484;2024-01-30T08:48:36;42.10;;;27.25;;
68765;SDS011;55756;45.582;11.484;2024-01-30T08:51:01;41.55;;;27.00;;
68765;SDS011;55756;45.582;11.484;2024-01-30T08:53:27;41.05;;;26.45;;
68765;SDS011;55756;45.582;11.484;2024-01-30T08:55:53;43.55;;;27.83;;
68765;SDS011;55756;45.582;11.484;2024-01-30T08:58:19;51.90;;;29.73;;
68765;SDS011;55756;45.582;11.484;2024-01-30T09:00:44;56.67;;;31.75;;
68765;SDS011;55756;45.582;11.484;2024-01-30T09:03:10;56.30;;;32.55;;
68765;SDS011;55756;45.582;11.484;2024-01-30T09:05:36;49.53;;;32.00;;
68765;SDS011;55756;45.582;11.484;2024-01-30T09:08:02;38.85;;;27.40;;
68765;SDS011;55756;45.582;11.484;2024-01-30T09:10:27;39.22;;;26.45;;
68765;SDS011;55756;45.582;11.484;2024-01-30T09:12:53;38.22;;;25.40;;
68765;SDS011;55756;45.582;11.484;2024-01-30T09:15:19;36.25;;;24.45;;
68765;SDS011;55756;45.582;11.484;2024-01-30T09:17:45;46.10;;;28.52;;
68765;SDS011;55756;45.582;11.484;2024-01-30T09:20:11;42.65;;;27.30;;
68765;SDS011;55756;45.582;11.484;2024-01-30T09:22:36;40.97;;;26.05;;
68765;SDS011;55756;45.582;11.484;2024-01-30T09:25:02;40.35;;;26.17;;
68765;SDS011;55756;45.582;11.484;2024-01-30T09:27:29;39.35;;;26.23;;
68765;SDS011;55756;45.582;11.484;2024-01-30T09:29:54;39.28;;;25.88;;
68765;SDS011;55756;45.582;11.484;2024-01-30T09:32:20;40.38;;;27.05;;
68765;SDS011;55756;45.582;11.484;2024-01-30T09:34:46;45.25;;;30.15;;
68765;SDS011;55756;45.582;11.484;2024-01-30T09:37:11;47.83;;;28.33;;
68765;SDS011;55756;45.582;11.484;2024-01-30T09:39:37;43.45;;;29.20;;
68765;SDS011;55756;45.582;11.484;2024-01-30T09:44:50;45.97;;;28.58;;
68765;SDS011;55756;45.582;11.484;2024-01-30T09:47:17;43.47;;;30.10;;
68765;SDS011;55756;45.582;11.484;2024-01-30T09:49:43;45.95;;;30.20;;
68765;SDS011;55756;45.582;11.484;2024-01-30T09:52:09;42.55;;;29.48;;
68765;SDS011;55756;45.582;11.484;2024-01-30T09:54:35;46.10;;;29.23;;
68765;SDS011;55756;45.582;11.484;2024-01-30T09:57:03;49.58;;;30.25;;
68765;SDS011;55756;45.582;11.484;2024-01-30T09:59:29;50.00;;;29.98;;
68765;SDS011;55756;45.582;11.484;2024-01-30T10:01:55;50.58;;;31.35;;
68765;SDS011;55756;45.582;11.484;2024-01-30T10:04:22;47.13;;;30.73;;
68765;SDS011;55756;45.582;11.484;2024-01-30T10:06:48;51.55;;;31.63;;
68765;SDS011;55756;45.582;11.484;2024-01-30T10:09:14;54.85;;;31.75;;
68765;SDS011;55756;45.582;11.484;2024-01-30T10:11:40;48.05;;;31.63;;
68765;SDS011;55756;45.582;11.484;2024-01-30T10:14:05;50.33;;;31.52;;
68765;SDS011;55756;45.582;11.484;2024-01-30T10:16:31;52.90;;;33.67;;
68765;SDS011;55756;45.582;11.484;2024-01-30T10:18:57;49.15;;;33.88;;
68765;SDS011;55756;45.582;11.484;2024-01-30T10:21:22;51.30;;;32.95;;
68765;SDS011;55756;45.582;11.484;2024-01-30T10:23:49;48.58;;;33.08;;
68765;SDS011;55756;45.582;11.484;2024-01-30T10:26:18;51.67;;;33.55;;
68765;SDS011;55756;45.582;11.484;2024-01-30T10:28:44;47.33;;;31.92;;
68765;SDS011;55756;45.582;11.484;2024-01-30T10:31:10;52.40;;;33.72;;
68765;SDS011;55756;45.582;11.484;2024-01-30T10:33:35;52.92;;;33.45;;
68765;SDS011;55756;45.582;11.484;2024-01-30T10:36:02;51.80;;;32.58;;
68765;SDS011;55756;45.582;11.484;2024-01-30T10:38:29;58.92;;;33.88;;
68765;SDS011;55756;45.582;11.484;2024-01-30T10:40:57;50.50;;;32.65;;
68765;SDS011;55756;45.582;11.484;2024-01-30T10:43:24;44.70;;;29.38;;
68765;SDS011;55756;45.582;11.484;2024-01-30T10:45:57;44.28;;;29.45;;
68765;SDS011;55756;45.582;11.484;2024-01-30T10:48:32;46.58;;;31.02;;
68765;SDS011;55756;45.582;11.484;2024-01-30T10:51:01;45.50;;;29.35;;
68765;SDS011;55756;45.582;11.484;2024-01-30T10:53:29;43.17;;;28.70;;
68765;SDS011;55756;45.582;11.484;2024-01-30T10:55:56;45.50;;;28.08;;
68765;SDS011;55756;45.582;11.484;2024-01-30T10:58:22;43.80;;;29.25;;
68765;SDS011;55756;45.582;11.484;2024-01-30T11:00:49;52.47;;;34.35;;
68765;SDS011;55756;45.582;11.484;2024-01-30T11:03:15;60.70;;;33.97;;
68765;SDS011;55756;45.582;11.484;2024-01-30T11:05:42;53.00;;;32.55;;
68765;SDS011;55756;45.582;11.484;2024-01-30T11:08:12;45.08;;;27.25;;
68765;SDS011;55756;45.582;11.484;2024-01-30T11:10:47;39.30;;;25.50;;
68765;SDS011;55756;45.582;11.484;2024-01-30T11:13:14;38.08;;;24.73;;
68765;SDS011;55756;45.582;11.484;2024-01-30T11:15:40;43.40;;;25.33;;
68765;SDS011;55756;45.582;11.484;2024-01-30T11:18:06;43.03;;;25.13;;
68765;SDS011;55756;45.582;11.484;2024-01-30T11:20:32;39.13;;;23.48;;
68765;SDS011;55756;45.582;11.484;2024-01-30T11:22:58;37.30;;;23.05;;
68765;SDS011;55756;45.582;11.484;2024-01-30T11:27:53;39.08;;;24.75;;
68765;SDS011;55756;45.582;11.484;2024-01-30T11:30:23;44.22;;;25.38;;
68765;SDS011;55756;45.582;11.484;2024-01-30T11:35:26;40.60;;;25.70;;
68765;SDS011;55756;45.582;11.484;2024-01-30T11:37:52;42.60;;;26.05;;
68765;SDS011;55756;45.582;11.484;2024-01-30T11:40:19;42.10;;;25.92;;
68765;SDS011;55756;45.582;11.484;2024-01-30T11:42:45;42.80;;;25.88;;
68765;SDS011;55756;45.582;11.484;2024-01-30T11:45:12;43.60;;;26.52;;
68765;SDS011;55756;45.582;11.484;2024-01-30T11:47:38;43.45;;;26.23;;
68765;SDS011;55756;45.582;11.484;2024-01-30T11:50:04;42.63;;;26.40;;
68765;SDS011;55756;45.582;11.484;2024-01-30T11:52:33;43.63;;;26.95;;
68765;SDS011;55756;45.582;11.484;2024-01-30T11:54:59;49.90;;;27.58;;
68765;SDS011;55756;45.582;11.484;2024-01-30T11:57:26;47.38;;;28.88;;
68765;SDS011;55756;45.582;11.484;2024-01-30T11:59:52;46.35;;;27.58;;
68765;SDS011;55756;45.582;11.484;2024-01-30T12:02:18;51.03;;;28.92;;
68765;SDS011;55756;45.582;11.484;2024-01-30T12:04:44;46.30;;;29.50;;
68765;SDS011;55756;45.582;11.484;2024-01-30T12:07:10;46.92;;;30.15;;
68765;SDS011;55756;45.582;11.484;2024-01-30T12:09:37;49.05;;;30.70;;
68765;SDS011;55756;45.582;11.484;2024-01-30T12:12:03;50.88;;;31.05;;
68765;SDS011;55756;45.582;11.484;2024-01-30T12:14:29;53.10;;;32.58;;
68765;SDS011;55756;45.582;11.484;2024-01-30T12:16:55;50.53;;;33.22;;
68765;SDS011;55756;45.582;11.484;2024-01-30T12:19:22;57.92;;;34.15;;
68765;SDS011;55756;45.582;11.484;2024-01-30T12:21:53;60.78;;;33.88;;
68765;SDS011;55756;45.582;11.484;2024-01-30T12:24:24;61.80;;;35.55;;
68765;SDS011;55756;45.582;11.484;2024-01-30T12:26:58;65.03;;;36.40;;
68765;SDS011;55756;45.582;11.484;2024-01-30T12:29:25;65.00;;;36.45;;
68765;SDS011;55756;45.582;11.484;2024-01-30T12:31:54;64.68;;;37.97;;
68765;SDS011;55756;45.582;11.484;2024-01-30T12:36:46;55.72;;;34.72;;
68765;SDS011;55756;45.582;11.484;2024-01-30T12:39:14;57.08;;;35.53;;
68765;SDS011;55756;45.582;11.484;2024-01-30T12:41:40;57.20;;;34.70;;
68765;SDS011;55756;45.582;11.484;2024-01-30T12:44:06;53.63;;;34.03;;
68765;SDS011;55756;45.582;11.484;2024-01-30T12:46:34;54.75;;;34.55;;
68765;SDS011;55756;45.582;11.484;2024-01-30T12:49:00;54.03;;;33.88;;
68765;SDS011;55756;45.582;11.484;2024-01-30T12:51:25;53.25;;;33.22;;
68765;SDS011;55756;45.582;11.484;2024-01-30T12:53:51;49.03;;;32.67;;
68765;SDS011;55756;45.582;11.484;2024-01-30T12:56:17;47.03;;;31.55;;
68765;SDS011;55756;45.582;11.484;2024-01-30T12:58:42;45.10;;;30.85;;
68765;SDS011;55756;45.582;11.484;2024-01-30T13:01:08;47.25;;;30.55;;
68765;SDS011;55756;45.582;11.484;2024-01-30T13:03:35;48.10;;;31.20;;
68765;SDS011;55756;45.582;11.484;2024-01-30T13:06:01;50.55;;;32.97;;
68765;SDS011;55756;45.582;11.484;2024-01-30T13:08:26;55.38;;;34.72;;
68765;SDS011;55756;45.582;11.484;2024-01-30T13:10:52;52.88;;;33.25;;
68765;SDS011;55756;45.582;11.484;2024-01-30T13:13:18;52.78;;;33.53;;
68765;SDS011;55756;45.582;11.484;2024-01-30T13:15:43;55.92;;;33.22;;
68765;SDS011;55756;45.582;11.484;2024-01-30T13:18:09;47.35;;;31.40;;
68765;SDS011;55756;45.582;11.484;2024-01-30T13:20:35;48.88;;;32.17;;
68765;SDS011;55756;45.582;11.484;2024-01-30T13:23:01;46.58;;;31.25;;
68765;SDS011;55756;45.582;11.484;2024-01-30T13:25:26;41.90;;;28.05;;
68765;SDS011;55756;45.582;11.484;2024-01-30T13:27:52;40.95;;;27.10;;
68765;SDS011;55756;45.582;11.484;2024-01-30T13:30:18;39.58;;;25.95;;
68765;SDS011;55756;45.582;11.484;2024-01-30T13:32:44;37.95;;;25.58;;
68765;SDS011;55756;45.582;11.484;2024-01-30T13:35:11;34.03;;;22.40;;
68765;SDS011;55756;45.582;11.484;2024-01-30T13:37:36;31.15;;;20.15;;
68765;SDS011;55756;45.582;11.484;2024-01-30T13:40:04;29.95;;;19.35;;
68765;SDS011;55756;45.582;11.484;2024-01-30T13:42:32;28.38;;;18.30;;
68765;SDS011;55756;45.582;11.484;2024-01-30T13:44:58;30.63;;;20.10;;
68765;SDS011;55756;45.582;11.484;2024-01-30T13:47:29;34.00;;;21.48;;
68765;SDS011;55756;45.582;11.484;2024-01-30T13:49:55;34.00;;;21.60;;
68765;SDS011;55756;45.582;11.484;2024-01-30T13:52:21;31.98;;;21.35;;
68765;SDS011;55756;45.582;11.484;2024-01-30T13:54:47;30.88;;;20.40;;
68765;SDS011;55756;45.582;11.484;2024-01-30T13:57:12;30.40;;;19.17;;
68765;SDS011;55756;45.582;11.484;2024-01-30T13:59:38;28.10;;;18.13;;
68765;SDS011;55756;45.582;11.484;2024-01-30T14:02:04;34.40;;;23.58;;
68765;SDS011;55756;45.582;11.484;2024-01-30T14:04:31;41.33;;;26.27;;
68765;SDS011;55756;45.582;11.484;2024-01-30T14:06:57;41.13;;;26.45;;
68765;SDS011;55756;45.582;11.484;2024-01-30T14:09:23;44.05;;;28.35;;
68765;SDS011;55756;45.582;11.484;2024-01-30T14:11:49;48.85;;;31.45;;
68765;SDS011;55756;45.582;11.484;2024-01-30T14:14:14;50.08;;;30.85;;
68765;SDS011;55756;45.582;11.484;2024-01-30T14:16:40;50.13;;;29.30;;